Time;durP1;ratioP1;P1;durP2;ratioP2;P2;SDS_P1;SDS_P2;PMS_P1;PMS_P2;Temp;Humidity;BMP_temperature;BMP_pressure;BME280_temperature;BME280_humidity;BME280_pressure;Samples;Min_cycle;Max_cycle;Signal;HPM_P1;HPM_P2
2021/09/25 00:02:19;;;;;;;15.30;13.33;;;10.50;99.90;;;11.64;59.39;94428.78;5011490;28;20687;-73
2021/09/25 00:04:45;;;;;;;16.67;13.83;;;10.80;99.90;;;11.59;59.20;94426.09;5013242;28;20638;-74
2021/09/25 00:07:11;;;;;;;13.77;12.30;;;10.70;99.90;;;11.62;59.34;94426.38;5025797;28;20233;-74
2021/09/25 00:09:40;;;;;;;13.47;12.07;;;10.60;99.90;;;11.64;59.40;94428.78;5008081;28;20213;-73
2021/09/25 00:12:13;;;;;;;16.13;14.40;;;10.40;99.90;;;11.61;59.51;94431.97;5024104;28;20224;-73
2021/09/25 00:14:45;;;;;;;17.03;14.40;;;11.00;99.90;;;11.64;59.62;94423.47;5025857;28;20573;-73
2021/09/25 00:17:13;;;;;;;15.70;13.90;;;10.60;99.90;;;11.64;59.46;94420.81;5028546;28;20720;-74
2021/09/25 00:19:42;;;;;;;15.53;13.90;;;10.40;99.90;;;11.64;59.83;94410.19;5026895;28;20222;-72
2021/09/25 00:22:08;;;;;;;15.90;13.37;;;10.80;99.90;;;11.67;60.11;94417.66;5028317;28;20293;-74
2021/09/25 00:24:35;;;;;;;15.50;13.50;;;10.90;99.90;;;11.66;60.00;94414.19;5040945;28;20216;-73
2021/09/25 00:27:04;;;;;;;15.80;13.10;;;;;;;11.68;60.28;94424.56;5010037;28;20289;-73
2021/09/25 00:29:30;;;;;;;14.60;12.20;;;;;;;11.66;60.03;94427.47;5028181;28;20693;-72
2021/09/25 00:31:56;;;;;;;13.87;12.20;;;10.30;99.90;;;11.62;60.24;94425.56;5010175;28;20230;-72
2021/09/25 00:34:25;;;;;;;15.33;12.87;;;;;;;11.54;60.76;94432.19;5028924;28;20230;-73
2021/09/25 00:36:55;;;;;;;15.97;14.23;;;10.30;99.90;;;11.56;60.88;94427.41;5007144;28;20216;-72
2021/09/25 00:39:21;;;;;;;15.50;13.60;;;10.90;99.90;;;11.58;60.67;94420.00;5028927;28;20224;-72
2021/09/25 00:41:49;;;;;;;15.60;13.00;;;11.10;99.90;;;11.58;60.88;94424.50;5025343;28;20723;-73
2021/09/25 00:44:19;;;;;;;13.87;12.47;;;10.00;99.90;;;11.57;60.81;94415.75;5028314;28;20863;-72
2021/09/25 00:46:45;;;;;;;17.17;13.43;;;;;;;11.63;61.10;94422.66;5009847;28;20226;-74
2021/09/25 00:49:19;;;;;;;15.20;13.50;;;10.50;99.90;;;11.61;60.96;94426.66;5026165;28;20271;-72
2021/09/25 00:51:48;;;;;;;17.97;14.77;;;9.80;99.90;;;11.60;61.07;94423.19;5011629;28;20729;-72
2021/09/25 00:54:17;;;;;;;15.60;13.77;;;10.40;99.90;;;11.64;60.79;94418.97;5012486;28;20242;-73
2021/09/25 00:56:47;;;;;;;16.93;13.97;;;10.70;99.90;;;11.62;61.08;94415.75;5043163;28;20658;-73
2021/09/25 00:59:14;;;;;;;15.67;14.07;;;10.90;99.90;;;11.63;61.09;94416.56;5050662;28;20578;-72
2021/09/25 01:01:41;;;;;;;20.77;15.67;;;10.80;99.90;;;11.69;61.34;94404.91;4999496;28;20617;-72
2021/09/25 01:04:07;;;;;;;18.13;15.13;;;10.70;99.90;;;11.65;61.43;94409.91;5028807;28;20223;-72
2021/09/25 01:06:33;;;;;;;22.97;18.33;;;10.20;99.90;;;11.87;61.80;94406.34;5027216;28;20698;-73
2021/09/25 01:09:04;;;;;;;20.53;16.40;;;11.20;99.90;;;11.91;61.81;94412.75;5027286;28;20274;-73
2021/09/25 01:11:33;;;;;;;18.97;16.13;;;11.00;99.90;;;11.97;61.54;94411.69;5026586;28;20220;-71
2021/09/25 01:13:59;;;;;;;18.63;15.17;;;;;;;11.88;61.91;94405.28;5029876;28;20212;-72
2021/09/25 01:16:25;;;;;;;18.03;15.60;;;10.90;99.90;;;11.86;61.55;94413.50;5029996;28;20216;-73
2021/09/25 01:18:53;;;;;;;15.97;14.07;;;10.70;99.90;;;11.82;62.02;94409.75;5015653;28;20282;-73
2021/09/25 01:21:19;;;;;;;17.33;15.40;;;11.00;99.90;;;11.70;62.12;94411.81;5028790;28;20221;-72
2021/09/25 01:23:48;;;;;;;21.43;15.83;;;10.80;99.90;;;11.70;62.15;94409.16;5013310;28;20638;-72
2021/09/25 01:26:14;;;;;;;17.63;14.77;;;10.90;99.90;;;11.65;62.32;94409.91;5010643;28;20288;-71
2021/09/25 01:28:46;;;;;;;17.23;15.40;;;10.70;99.90;;;11.66;62.53;94416.03;5010783;28;20254;-72
2021/09/25 01:31:13;;;;;;;19.17;16.60;;;10.90;99.90;;;11.67;62.47;94413.13;5030595;28;20587;-72
2021/09/25 01:33:44;;;;;;;16.50;14.20;;;10.80;99.90;;;11.63;62.75;94412.03;5030934;28;20325;-73
2021/09/25 01:36:12;;;;;;;16.87;13.53;;;10.70;99.90;;;11.57;62.51;94410.44;5013558;28;20222;-72
2021/09/25 01:38:42;;;;;;;15.80;13.10;;;10.30;99.90;;;11.58;62.59;94412.03;5007999;28;20216;-72
2021/09/25 01:41:11;;;;;;;16.00;14.30;;;10.90;99.90;;;11.50;62.38;94407.19;5028999;28;20226;-72
2021/09/25 01:43:37;;;;;;;17.23;15.03;;;10.50;99.90;;;11.47;62.95;94398.97;5024046;28;20227;-72
2021/09/25 01:46:06;;;;;;;16.97;13.73;;;10.50;99.90;;;11.50;62.99;94412.50;5032222;28;20223;-73
2021/09/25 01:48:32;;;;;;;15.07;13.40;;;10.60;99.90;;;11.53;62.75;94405.88;5014108;28;20243;-73
2021/09/25 01:51:00;;;;;;;16.17;13.43;;;10.90;99.90;;;11.50;63.31;94399.25;5012562;28;20216;-72
2021/09/25 01:53:26;;;;;;;14.87;12.37;;;10.70;99.90;;;11.48;63.37;94405.88;4996976;28;20216;-73
2021/09/25 01:55:52;;;;;;;16.43;13.07;;;10.20;99.90;;;11.47;63.23;94391.00;5031744;28;20274;-73
2021/09/25 01:58:19;;;;;;;16.93;13.67;;;;;;;11.40;63.29;94401.84;5009221;28;20302;-73
2021/09/25 02:00:45;;;;;;;14.17;12.67;;;10.40;99.90;;;11.43;63.34;94405.81;5031360;28;20232;-74
2021/09/25 02:03:12;;;;;;;16.47;12.17;;;10.80;99.90;;;11.43;63.55;94405.81;5031352;28;20216;-73
2021/09/25 02:05:38;;;;;;;13.17;11.77;;;11.00;99.90;;;11.39;63.45;94402.88;5017346;28;20373;-73
2021/09/25 02:08:07;;;;;;;13.60;12.07;;;10.70;99.90;;;11.37;63.44;94404.19;5030461;28;20650;-72
2021/09/25 02:10:35;;;;;;;13.77;11.77;;;10.40;99.90;;;11.34;63.75;94394.91;5013977;28;20223;-72
2021/09/25 02:13:01;;;;;;;12.20;10.90;;;;;;;11.37;63.80;94394.38;5012448;28;20233;-72
2021/09/25 02:15:32;;;;;;;13.80;11.73;;;10.30;99.90;;;11.37;63.66;94401.56;5027887;28;20251;-72
2021/09/25 02:18:03;;;;;;;15.23;12.27;;;10.30;99.90;;;11.31;63.87;94403.38;5020770;28;20230;-72
2021/09/25 02:20:29;;;;;;;15.30;13.57;;;10.40;99.90;;;11.31;64.06;94396.19;5014426;28;20586;-72
2021/09/25 02:22:55;;;;;;;18.03;15.20;;;10.70;99.90;;;11.38;64.16;94397.84;5011402;28;20215;-72
2021/09/25 02:25:25;;;;;;;15.90;13.53;;;10.10;99.90;;;11.37;64.01;94385.63;5013745;28;20244;-73
2021/09/25 02:27:51;;;;;;;15.63;13.57;;;;;;;11.39;63.87;94404.72;5009837;28;20223;-73
2021/09/25 02:30:19;;;;;;;14.00;12.10;;;10.60;99.90;;;11.31;63.88;94398.84;5010714;28;20304;-73
2021/09/25 02:32:48;;;;;;;16.50;12.80;;;10.40;99.90;;;11.25;64.31;94391.91;5027816;28;20310;-73
2021/09/25 02:35:19;;;;;;;14.03;12.40;;;10.30;99.90;;;11.24;64.43;94394.84;5032526;28;20272;-73
2021/09/25 02:37:49;;;;;;;12.83;11.53;;;10.20;99.90;;;11.28;64.71;94390.63;5009958;28;20219;-73
2021/09/25 02:40:16;;;;;;;13.50;11.23;;;10.10;99.90;;;11.20;64.45;94391.91;5035214;28;20232;-73
2021/09/25 02:42:44;;;;;;;12.70;11.30;;;10.30;99.90;;;11.25;64.81;94394.56;5027269;28;20636;-72
2021/09/25 02:45:12;;;;;;;11.77;10.57;;;10.60;99.90;;;11.17;64.46;94391.63;5029721;28;20227;-73
2021/09/25 02:47:40;;;;;;;15.17;11.80;;;10.50;99.90;;;11.14;65.03;94400.09;5026013;28;20215;-72
2021/09/25 02:50:10;;;;;;;12.57;11.10;;;10.20;99.90;;;11.14;64.88;94394.78;5006870;28;20304;-73
2021/09/25 02:52:43;;;;;;;11.63;10.23;;;9.60;99.90;;;11.10;64.81;94385.72;5011491;28;21027;-72
2021/09/25 02:55:11;;;;;;;13.87;11.13;;;10.20;99.90;;;11.10;64.88;94386.53;5030088;28;20245;-72
2021/09/25 02:57:37;;;;;;;12.27;10.97;;;10.40;99.90;;;11.06;65.20;94380.13;5013317;28;20223;-73
2021/09/25 03:00:10;;;;;;;13.30;10.93;;;10.20;99.90;;;11.13;64.95;94386.03;5012774;28;20220;-74
2021/09/25 03:02:36;;;;;;;10.80;9.70;;;10.10;99.90;;;11.13;65.00;94378.06;5027761;28;20676;-74
2021/09/25 03:05:05;;;;;;;12.67;10.57;;;;;;;11.05;65.23;94375.88;5032126;28;20221;-72
2021/09/25 03:07:31;;;;;;;10.90;9.77;;;;;;;11.01;65.31;94381.97;5012122;28;20221;-72
2021/09/25 03:09:57;;;;;;;12.43;9.73;;;10.10;99.90;;;11.02;65.16;94380.88;5014333;28;20245;-72
2021/09/25 03:12:23;;;;;;;11.47;9.30;;;10.00;99.90;;;11.00;65.40;94375.84;5041432;28;20358;-72
2021/09/25 03:14:54;;;;;;;14.50;9.50;;;10.20;99.90;;;10.90;65.42;94383.75;5023846;28;20313;-73
2021/09/25 03:17:20;;;;;;;9.77;8.77;;;10.30;99.90;;;10.90;65.25;94380.28;5028426;28;20216;-74
2021/09/25 03:19:46;;;;;;;12.87;9.97;;;10.30;99.90;;;10.91;65.75;94384.53;5028904;28;20224;-72
2021/09/25 03:22:16;;;;;;;11.20;9.03;;;10.00;99.90;;;10.91;65.53;94387.19;4994249;28;20224;-73
2021/09/25 03:24:43;;;;;;;13.17;8.93;;;10.50;99.90;;;10.85;65.59;94388.19;5009874;28;20222;-72
2021/09/25 03:27:09;;;;;;;9.43;8.23;;;10.40;99.90;;;10.80;65.88;94381.81;5023971;28;20246;-73
2021/09/25 03:29:35;;;;;;;11.20;8.20;;;10.30;99.90;;;10.80;65.86;94381.00;5029006;28;20679;-73
2021/09/25 03:32:02;;;;;;;9.00;8.10;;;;;;;10.83;65.63;94388.44;4996513;28;20228;-73
2021/09/25 03:34:28;;;;;;;11.23;9.03;;;;;;;10.83;66.06;94391.09;5027608;28;20247;-72
2021/09/25 03:36:54;;;;;;;8.57;7.73;;;10.20;99.90;;;10.80;65.84;94387.13;5025640;28;20227;-73
2021/09/25 03:39:20;;;;;;;9.33;8.17;;;10.40;99.90;;;10.88;65.84;94385.81;5011602;28;20236;-73
2021/09/25 03:41:48;;;;;;;10.20;8.87;;;9.60;99.90;;;10.76;65.81;94378.06;5027573;28;20226;-72
2021/09/25 03:44:14;;;;;;;10.53;8.83;;;10.40;99.90;;;10.73;65.88;94383.88;4995272;28;20219;-73
2021/09/25 03:46:43;;;;;;;9.60;8.60;;;10.00;99.90;;;10.80;66.04;94395.06;5025013;28;20762;-73
2021/09/25 03:49:11;;;;;;;10.80;8.27;;;10.30;99.90;;;10.74;66.17;94395.28;5030515;28;20217;-72
2021/09/25 03:51:39;;;;;;;10.33;8.63;;;9.90;99.90;;;10.69;66.31;94390.72;5011213;28;20245;-71
2021/09/25 03:54:07;;;;;;;8.97;7.83;;;9.10;99.90;;;10.66;66.18;94387.78;5017733;28;20291;-74
2021/09/25 03:56:33;;;;;;;10.77;8.17;;;10.20;99.90;;;10.64;66.22;94384.59;5013241;28;20245;-73
2021/09/25 03:59:01;;;;;;;10.13;8.30;;;10.10;99.90;;;10.56;66.19;94399.09;5011328;28;20697;-73
2021/09/25 04:01:27;;;;;;;10.20;8.83;;;9.90;99.90;;;10.54;66.19;94387.16;5028251;28;20225;-73
2021/09/25 04:03:57;;;;;;;11.70;8.80;;;10.40;99.90;;;10.51;66.42;94400.91;5026656;28;20666;-72
2021/09/25 04:06:25;;;;;;;15.20;8.57;;;9.80;99.90;;;10.50;66.59;94394.00;5030212;28;20226;-73
2021/09/25 04:08:52;;;;;;;9.13;8.23;;;9.80;99.90;;;10.51;66.73;94392.97;5033557;28;20950;-73
2021/09/25 04:11:19;;;;;;;13.23;8.97;;;9.60;99.90;;;10.46;66.73;94392.91;5029278;28;20255;-73
2021/09/25 04:13:45;;;;;;;10.60;9.37;;;9.60;99.90;;;10.51;66.67;94388.44;5043790;28;20227;-74
2021/09/25 04:16:10;;;;;;;9.77;8.23;;;10.00;99.90;;;10.47;66.89;94383.91;5026853;28;20218;-73
2021/09/25 04:18:39;;;;;;;8.73;7.83;;;8.90;99.90;;;10.48;66.85;94388.94;4995585;28;20265;-73
2021/09/25 04:21:04;;;;;;;10.73;8.33;;;9.10;99.90;;;10.45;66.83;94384.16;5028564;28;20241;-73
2021/09/25 04:23:33;;;;;;;8.93;8.03;;;9.70;99.90;;;10.47;66.85;94384.72;4987960;28;20238;-72
2021/09/25 04:26:01;;;;;;;9.37;8.40;;;9.40;99.90;;;10.39;66.76;94379.06;5010733;28;20221;-73
2021/09/25 04:28:27;;;;;;;9.93;8.30;;;9.60;99.90;;;10.32;67.19;94376.63;5026345;28;20224;-72
2021/09/25 04:30:53;;;;;;;9.90;8.90;;;9.40;99.90;;;10.31;67.11;94380.31;5006389;28;20242;-72
2021/09/25 04:33:21;;;;;;;11.60;9.43;;;9.30;99.90;;;10.31;67.29;94392.78;5007261;28;20700;-74
2021/09/25 04:35:47;;;;;;;12.03;9.90;;;;;;;10.23;67.23;94384.22;5028460;28;20221;-73
2021/09/25 04:38:18;;;;;;;11.67;9.60;;;10.00;99.90;;;10.32;67.36;94383.75;5010370;28;20686;-73
2021/09/25 04:40:46;;;;;;;9.63;8.47;;;9.70;99.90;;;10.28;67.32;94378.97;5025152;28;20220;-72
2021/09/25 04:43:17;;;;;;;9.73;8.60;;;9.30;99.90;;;10.32;67.42;94389.84;5006226;28;20676;-73
2021/09/25 04:45:43;;;;;;;10.77;9.00;;;8.50;99.90;;;10.24;67.38;94387.69;4985403;28;20232;-74
2021/09/25 04:48:09;;;;;;;11.17;9.63;;;9.10;99.90;;;10.21;67.50;94382.84;5024541;28;20248;-74
2021/09/25 04:50:35;;;;;;;12.60;11.30;;;9.60;99.90;;;10.22;67.61;94385.28;5010039;28;20227;-72
2021/09/25 04:53:15;;;;;;;10.10;9.10;;;9.50;99.90;;;10.29;67.80;94390.38;5009858;28;20221;-73
2021/09/25 04:55:47;;;;;;;10.47;9.37;;;9.20;99.90;;;10.35;67.67;94385.91;5025235;28;20315;-73
2021/09/25 04:58:13;;;;;;;11.33;10.13;;;9.50;99.90;;;10.31;67.75;94379.53;5029545;28;20735;-73
2021/09/25 05:00:39;;;;;;;11.93;9.87;;;8.90;99.90;;;10.27;67.57;94376.56;5029406;28;20213;-73
2021/09/25 05:03:08;;;;;;;10.03;9.03;;;8.80;99.90;;;10.23;67.43;94375.47;5009666;28;20278;-73
2021/09/25 05:05:37;;;;;;;12.57;10.20;;;;;;;10.20;67.98;94374.13;5017250;28;20666;-72
2021/09/25 05:08:05;;;;;;;13.43;11.40;;;9.50;99.90;;;10.24;67.92;94377.09;5029701;28;20655;-72
2021/09/25 05:10:31;;;;;;;13.07;10.60;;;9.10;99.90;;;10.27;67.91;94374.69;5012491;28;20223;-72
2021/09/25 05:12:59;;;;;;;13.13;10.57;;;9.60;99.90;;;10.28;67.75;94373.66;5029149;28;20347;-73
2021/09/25 05:15:25;;;;;;;12.57;10.40;;;;;;;10.38;68.05;94377.44;5032171;28;20744;-74
2021/09/25 05:17:51;;;;;;;11.73;9.97;;;10.10;99.90;;;10.36;68.35;94380.38;4994977;28;20224;-72
2021/09/25 05:20:17;;;;;;;10.43;9.33;;;;;;;10.40;68.14;94386.78;5024331;28;20330;-72
2021/09/25 05:22:43;;;;;;;9.77;8.83;;;9.10;99.90;;;10.45;68.52;94378.84;5011653;28;20224;-73
2021/09/25 05:25:09;;;;;;;13.70;9.77;;;9.10;99.90;;;10.40;68.19;94378.81;5029572;28;20211;-72
2021/09/25 05:27:36;;;;;;;11.20;8.87;;;;;;;10.40;68.29;94386.78;5028301;28;20302;-73
2021/09/25 05:30:04;;;;;;;8.90;8.00;;;9.60;99.90;;;10.43;68.72;94388.09;5011463;28;20248;-73
2021/09/25 05:32:37;;;;;;;10.23;8.70;;;9.50;99.90;;;10.43;68.46;94388.09;5025646;28;20343;-73
2021/09/25 05:35:05;;;;;;;9.03;8.03;;;8.80;99.90;;;10.51;68.59;94387.66;5026067;28;20620;-72
2021/09/25 05:37:33;;;;;;;8.97;7.50;;;9.70;99.90;;;10.57;68.71;94395.41;5028181;28;20851;-72
2021/09/25 05:40:02;;;;;;;9.10;7.97;;;8.90;99.90;;;10.64;68.49;94392.56;5026889;28;20241;-72
2021/09/25 05:42:28;;;;;;;9.20;8.17;;;9.70;99.90;;;10.65;68.71;94391.47;4996879;28;20312;-73
2021/09/25 05:44:55;;;;;;;10.20;8.50;;;8.70;99.90;;;10.63;69.01;94391.75;5012770;28;20212;-73
2021/09/25 05:47:25;;;;;;;11.20;8.27;;;9.70;99.90;;;10.69;68.79;94395.22;4995368;28;20227;-72
2021/09/25 05:49:54;;;;;;;10.90;7.80;;;;;;;10.77;68.72;94397.44;5028983;28;20218;-73
2021/09/25 05:52:23;;;;;;;8.70;7.70;;;9.40;99.90;;;10.88;68.87;94396.44;5030297;28;20218;-70
2021/09/25 05:54:49;;;;;;;9.17;7.10;;;;;;;10.91;68.93;94403.91;5015904;28;20295;-72
2021/09/25 05:57:15;;;;;;;10.40;7.10;;;10.70;99.90;;;10.94;68.83;94402.59;5012692;28;20329;-72
2021/09/25 05:59:43;;;;;;;7.13;6.40;;;10.20;99.90;;;11.02;69.07;94407.41;5017611;28;20520;-72
2021/09/25 06:02:12;;;;;;;8.27;6.67;;;10.50;99.90;;;11.14;69.11;94408.84;5029379;28;20212;-72
2021/09/25 06:04:38;;;;;;;8.43;6.53;;;11.10;99.90;;;11.24;69.23;94413.41;5008267;28;20222;-72
2021/09/25 06:07:11;;;;;;;9.97;7.13;;;10.30;99.90;;;11.16;69.01;94409.38;5026935;28;20268;-73
2021/09/25 06:09:42;;;;;;;9.43;7.33;;;9.90;99.90;;;11.17;69.19;94407.53;5014500;28;20761;-73
2021/09/25 06:12:08;;;;;;;9.93;7.80;;;10.60;99.90;;;11.30;69.08;94412.38;5027629;28;20537;-72
2021/09/25 06:14:37;;;;;;;7.50;6.73;;;10.70;99.90;;;11.45;69.48;94417.78;5028814;28;20296;-73
2021/09/25 06:17:05;;;;;;;7.90;7.10;;;10.70;99.90;;;11.65;69.58;94425.06;5012184;28;20675;-72
2021/09/25 06:19:31;;;;;;;9.43;7.30;;;10.80;99.90;;;11.82;69.44;94409.75;5033562;28;20697;-73
2021/09/25 06:21:57;;;;;;;8.63;6.90;;;10.50;99.90;;;11.91;69.78;94421.50;5026208;28;20212;-71
2021/09/25 06:24:23;;;;;;;7.80;7.07;;;11.30;99.90;;;12.16;69.75;94421.59;5012355;28;20245;-73
2021/09/25 06:26:50;;;;;;;9.90;6.40;;;11.30;99.90;;;12.35;69.40;94430.66;5029948;28;20219;-72
2021/09/25 06:29:18;;;;;;;7.43;6.73;;;11.40;99.90;;;12.60;70.11;94415.84;5028159;28;20212;-72
2021/09/25 06:31:49;;;;;;;8.07;5.93;;;11.60;99.90;;;12.92;69.69;94423.59;5016465;28;20279;-72
2021/09/25 06:34:14;;;;;;;7.53;6.13;;;11.90;99.90;;;13.20;69.84;94429.19;5028107;28;20215;-72
2021/09/25 06:36:43;;;;;;;6.60;5.90;;;;;;;13.84;70.07;94449.88;5029030;28;20300;-74
2021/09/25 06:39:09;;;;;;;6.17;5.13;;;14.60;99.90;;;15.58;70.11;94519.69;5018382;28;20633;-72
2021/09/25 06:41:37;;;;;;;5.40;4.23;;;16.10;99.90;;;17.35;70.54;94467.53;5012566;28;20230;-73
2021/09/25 06:44:04;;;;;;;4.00;3.60;;;17.60;99.90;;;19.02;70.67;94442.91;5028103;28;20593;-72
2021/09/25 06:46:30;;;;;;;4.50;3.10;;;17.60;99.90;;;21.05;70.31;94484.97;5028638;28;20611;-72
2021/09/25 06:48:56;;;;;;;3.23;3.00;;;19.50;99.90;;;23.00;70.03;94488.72;5009741;28;20257;-72
2021/09/25 06:51:22;;;;;;;5.53;3.40;;;23.60;99.90;;;24.66;69.65;94483.88;5025879;28;20234;-72
2021/09/25 06:53:50;;;;;;;3.73;3.43;;;26.00;99.90;;;25.94;69.62;94469.53;5024967;28;20250;-71
2021/09/25 06:56:16;;;;;;;4.43;3.27;;;25.20;99.90;;;26.72;68.86;94430.78;5028287;28;20621;-71
2021/09/25 06:58:42;;;;;;;6.20;3.40;;;26.50;99.90;;;27.34;68.36;94440.75;5025995;28;20222;-71
2021/09/25 07:01:08;;;;;;;3.47;3.17;;;27.50;99.90;;;27.89;68.11;94436.84;5025425;28;20226;-71
2021/09/25 07:03:36;;;;;;;3.20;3.00;;;28.20;99.90;;;28.77;67.28;94443.13;4997421;28;20685;-71
2021/09/25 07:06:02;;;;;;;3.70;3.40;;;29.30;99.10;;;29.17;66.98;94443.38;5027984;28;20293;-72
2021/09/25 07:08:31;;;;;;;4.03;3.40;;;29.90;96.50;;;29.11;66.67;94417.50;5010214;28;20266;-71
2021/09/25 07:10:57;;;;;;;3.40;3.10;;;30.20;94.80;;;30.24;65.84;94427.16;5012597;28;20216;-71
2021/09/25 07:13:23;;;;;;;3.70;3.40;;;31.30;92.30;;;30.70;65.62;94407.63;4994499;28;20225;-70
2021/09/25 07:15:54;;;;;;;3.83;3.40;;;31.60;90.70;;;30.58;65.20;94432.56;5026620;28;20714;-71
2021/09/25 07:18:20;;;;;;;3.83;3.53;;;31.50;90.20;;;31.36;64.44;94409.28;5027565;28;20219;-71
2021/09/25 07:20:46;;;;;;;4.73;3.40;;;32.10;87.70;;;31.45;63.88;94448.88;5009595;28;20227;-71
2021/09/25 07:23:13;;;;;;;4.27;3.77;;;31.70;90.50;;;31.95;63.55;94468.34;5007830;28;20220;-70
2021/09/25 07:25:42;;;;;;;4.73;3.70;;;32.60;85.10;;;32.01;63.03;94409.97;5010849;28;20307;-71
2021/09/25 07:28:08;;;;;;;3.70;3.40;;;32.80;83.30;;;32.19;62.00;94442.97;5010642;28;20215;-72
2021/09/25 07:30:37;;;;;;;3.57;3.27;;;33.20;81.10;;;33.30;61.83;94448.19;5031124;28;20225;-71
2021/09/25 07:33:07;;;;;;;3.70;3.40;;;34.40;77.90;;;34.20;60.76;94463.25;5009741;28;20215;-72
2021/09/25 07:35:36;;;;;;;4.78;3.30;;;35.30;76.10;;;35.17;59.83;94481.53;5032075;28;20212;-72
2021/09/25 07:38:08;;;;;;;3.72;3.40;;;37.00;76.50;;;34.90;60.02;94332.53;5025856;28;20211;-71
2021/09/25 07:40:35;;;;;;;3.60;3.40;;;36.30;75.60;;;35.11;59.06;94464.66;5039103;28;20226;-71
2021/09/25 07:43:02;;;;;;;3.67;3.38;;;37.10;75.80;;;35.83;58.23;94468.28;5008633;28;20204;-70
2021/09/25 07:45:31;;;;;;;3.55;3.35;;;38.00;68.70;;;36.67;57.70;94466.47;5028727;28;20322;-70
2021/09/25 07:47:57;;;;;;;4.15;3.10;;;38.70;67.40;;;37.24;56.31;94424.13;5009228;28;20212;-71
2021/09/25 07:50:24;;;;;;;2.85;2.65;;;38.80;63.20;;;36.75;56.28;94357.38;5010510;28;20218;-71
2021/09/25 07:52:50;;;;;;;3.28;3.00;;;39.80;78.90;;;37.43;55.31;94401.25;5024644;28;20235;-71
2021/09/25 07:55:21;;;;;;;3.75;3.45;;;39.60;73.30;;;37.05;55.15;94364.00;5022188;28;20212;-71
2021/09/25 07:57:46;;;;;;;4.40;3.05;;;38.80;72.40;;;35.95;54.63;94336.06;5024289;28;20718;-71
2021/09/25 08:00:16;;;;;;;3.78;3.10;;;38.10;71.10;;;34.88;54.08;94384.53;5024917;28;20216;-72
2021/09/25 08:02:42;;;;;;;2.90;2.70;;;38.40;72.70;;;35.69;53.32;94449.16;5024395;28;20219;-71
2021/09/25 08:05:11;;;;;;;3.55;2.80;;;38.40;61.50;;;36.89;52.51;94489.84;4996604;28;20207;-71
2021/09/25 08:07:40;;;;;;;2.92;2.47;;;39.30;59.30;;;37.06;52.50;94416.13;5008542;28;20212;-71
2021/09/25 08:10:11;;;;;;;3.00;2.75;;;39.70;56.70;;;38.06;51.51;94465.72;5030224;28;20219;-72
2021/09/25 08:12:38;;;;;;;3.20;2.90;;;40.40;56.10;;;39.95;50.60;94458.88;5023015;28;20235;-72
2021/09/25 08:15:06;;;;;;;3.70;2.80;;;41.80;55.70;;;40.55;50.04;94370.19;5025918;28;20292;-70
2021/09/25 08:17:32;;;;;;;2.75;2.55;;;42.80;57.80;;;39.66;49.74;94326.75;5026951;28;20216;-73
2021/09/25 08:19:58;;;;;;;2.92;2.70;;;42.40;54.90;;;38.93;49.40;94329.13;5021784;28;20203;-71
2021/09/25 08:22:24;;;;;;;3.53;3.22;;;42.10;54.80;;;39.31;48.03;94372.97;5025968;28;20708;-72
2021/09/25 08:24:52;;;;;;;3.25;2.78;;;42.30;55.50;;;37.18;48.55;94257.09;5004629;28;20234;-73
2021/09/25 08:27:21;;;;;;;3.05;2.75;;;40.60;55.70;;;37.93;47.19;94431.56;5026963;28;20216;-71
2021/09/25 08:29:47;;;;;;;3.08;2.78;;;40.90;56.70;;;37.18;47.37;94421.06;5025471;28;20221;-71
2021/09/25 08:32:13;;;;;;;3.08;2.80;;;40.00;55.80;;;36.69;47.13;94356.31;5025694;28;20363;-72
2021/09/25 08:34:38;;;;;;;3.97;3.50;;;39.20;58.00;;;35.46;46.56;94318.13;5031277;28;20224;-72
2021/09/25 08:37:06;;;;;;;3.78;3.22;;;38.30;59.20;;;33.98;46.89;94352.47;5027302;28;20204;-70
2021/09/25 08:39:33;;;;;;;4.05;3.55;;;36.60;66.30;;;34.70;46.12;94356.31;5011003;28;20239;-72
2021/09/25 08:42:03;;;;;;;3.70;3.40;;;37.00;61.60;;;35.01;46.04;94435.97;5025969;28;20212;-72
2021/09/25 08:44:32;;;;;;;3.63;3.33;;;37.70;68.10;;;36.37;45.04;94428.59;5027676;28;20223;-71
2021/09/25 08:46:58;;;;;;;4.30;3.67;;;37.70;70.00;;;36.06;44.86;94423.47;5011355;28;20219;-72
2021/09/25 08:49:24;;;;;;;4.38;3.97;;;37.50;67.30;;;35.64;44.81;94388.91;5023839;28;20235;-71
2021/09/25 08:51:55;;;;;;;4.18;3.78;;;37.40;62.90;;;35.65;44.78;94391.25;5025728;28;20224;-71
2021/09/25 08:54:21;;;;;;;5.03;3.63;;;37.50;63.20;;;36.08;44.40;94341.03;5014185;28;20687;-71
2021/09/25 08:56:49;;;;;;;3.45;3.17;;;38.00;62.70;;;37.11;43.83;94443.28;5010489;28;20216;-72
2021/09/25 08:59:18;;;;;;;3.50;3.20;;;39.00;62.10;;;37.80;43.19;94375.25;5006441;28;20213;-70
2021/09/25 09:01:48;;;;;;;2.65;2.45;;;40.00;60.40;;;38.87;43.45;94468.75;5028695;28;20216;-71
2021/09/25 09:04:13;;;;;;;3.08;2.50;;;41.10;57.80;;;38.54;43.07;94337.63;5025170;28;20213;-72
2021/09/25 09:06:42;;;;;;;3.17;2.60;;;41.30;57.50;;;38.43;42.82;94400.81;5012605;28;20231;-70
2021/09/25 09:09:12;;;;;;;2.90;2.70;;;41.40;57.00;;;39.99;42.04;94419.88;5008274;28;20243;-72
2021/09/25 09:11:47;;;;;;;2.83;2.50;;;42.70;55.00;;;40.20;41.49;94422.06;5027706;28;20389;-71
2021/09/25 09:14:15;;;;;;;2.88;2.67;;;43.10;54.70;;;39.37;41.82;94316.47;5021341;28;20220;-72
2021/09/25 09:16:42;;;;;;;3.80;2.90;;;42.90;54.90;;;39.25;41.29;94383.81;5021320;28;20267;-72
2021/09/25 09:19:08;;;;;;;3.03;2.80;;;42.60;53.60;;;37.99;41.10;94404.91;5009529;28;20243;-72
2021/09/25 09:21:34;;;;;;;2.88;2.58;;;41.20;69.40;;;38.41;40.26;94394.94;5027955;28;20247;-73
2021/09/25 09:24:10;;;;;;;2.97;2.75;;;39.70;56.00;;;36.68;40.61;94414.75;5025206;28;20683;-71
2021/09/25 09:26:41;;;;;;;3.13;2.45;;;40.00;67.20;;;37.34;40.14;94332.63;5021840;28;20236;-72
2021/09/25 09:29:09;;;;;;;2.60;2.40;;;40.80;64.50;;;38.54;39.38;94442.94;5022204;28;21316;-71
2021/09/25 09:31:37;;;;;;;2.65;2.45;;;40.20;66.10;;;37.93;39.06;94431.56;5009627;28;20228;-72
2021/09/25 09:34:06;;;;;;;2.95;2.70;;;40.30;56.70;;;37.84;38.96;94360.09;5023365;28;20234;-73
2021/09/25 09:36:43;;;;;;;2.80;2.60;;;40.40;54.40;;;38.49;38.73;94408.19;5031840;28;20214;-73
2021/09/25 09:39:17;;;;;;;2.95;2.58;;;40.50;54.60;;;39.11;39.04;94428.53;5012191;28;20247;-73
2021/09/25 09:41:48;;;;;;;3.17;2.50;;;41.40;54.10;;;39.10;38.33;94343.75;5013699;28;20216;-73
2021/09/25 09:44:18;;;;;;;3.83;2.10;;;41.40;53.20;;;40.62;37.67;94416.47;5026739;28;20303;-72
2021/09/25 09:46:57;;;;;;;2.55;2.35;;;42.60;52.50;;;40.96;37.71;94363.72;5024237;28;20223;-70
2021/09/25 09:49:35;;;;;;;2.85;2.17;;;43.30;51.00;;;40.48;37.30;94331.47;5027154;28;20931;-70
2021/09/25 09:52:12;;;;;;;2.30;2.17;;;42.90;50.80;;;39.54;37.22;94328.31;5012071;28;20231;-71
2021/09/25 09:54:43;;;;;;;2.95;2.30;;;42.10;51.40;;;40.16;36.72;94451.94;5013228;28;20218;-71
2021/09/25 09:57:19;;;;;;;3.10;2.35;;;42.30;52.40;;;40.61;36.01;94367.63;5027653;28;20231;-71
2021/09/25 09:59:48;;;;;;;2.88;2.63;;;43.00;52.60;;;37.51;36.50;94267.09;5027655;28;20211;-71
2021/09/25 10:02:17;;;;;;;4.15;2.33;;;40.70;53.30;;;36.61;36.15;94395.50;5026065;28;20224;-71
2021/09/25 10:04:46;;;;;;;3.92;2.28;;;39.50;55.80;;;35.88;36.23;94467.84;5029383;28;20300;-74
2021/09/25 10:07:12;;;;;;;2.63;2.30;;;38.40;55.90;;;34.76;35.96;94324.38;5029563;28;20220;-71
2021/09/25 10:09:41;;;;;;;2.72;2.28;;;37.10;58.00;;;35.79;35.61;94341.41;5027767;28;20333;-69
2021/09/25 10:12:14;;;;;;;3.25;2.10;;;37.30;60.40;;;34.59;35.87;94367.41;5029600;28;20228;-71
2021/09/25 10:14:45;;;;;;;2.47;2.28;;;37.30;57.00;;;33.10;35.94;94278.63;5025629;28;20560;-71
2021/09/25 10:17:14;;;;;;;3.55;2.08;;;35.80;58.40;;;32.31;35.65;94318.31;5009906;28;20216;-71
2021/09/25 10:19:43;;;;;;;3.53;2.08;;;34.70;63.10;;;31.76;35.60;94293.16;5026845;28;20216;-71
2021/09/25 10:22:28;;;;;;;3.87;2.50;;;34.00;65.40;;;31.05;35.85;94369.59;5025291;28;20220;-71
2021/09/25 10:24:59;;;;;;;5.43;2.90;;;31.70;73.10;;;31.14;35.75;94363.75;5028625;28;20267;-72